sensor_id;sensor_type;location;lat;lon;timestamp;temperature;humidity
11320;DHT22;5715;48.234;14.320;2023-07-20T00:00:41;19.20;99.90
11320;DHT22;5715;48.234;14.320;2023-07-20T00:03:31;19.10;99.90
11320;DHT22;5715;48.234;14.320;2023-07-20T00:06:19;19.00;99.90
11320;DHT22;5715;48.234;14.320;2023-07-20T00:09:10;18.90;99.90
11320;DHT22;5715;48.234;14.320;2023-07-20T00:11:57;18.80;99.90
11320;DHT22;5715;48.234;14.320;2023-07-20T00:14:47;18.70;99.90
11320;DHT22;5715;48.234;14.320;2023-07-20T00:17:35;18.70;99.90
11320;DHT22;5715;48.234;14.320;2023-07-20T00:20:24;18.70;99.90
11320;DHT22;5715;48.234;14.320;2023-07-20T00:23:13;18.60;99.90
11320;DHT22;5715;48.234;14.320;2023-07-20T00:26:01;18.50;99.90
11320;DHT22;5715;48.234;14.320;2023-07-20T00:28:50;18.40;99.90
11320;DHT22;5715;48.234;14.320;2023-07-20T00:31:38;18.20;99.90
11320;DHT22;5715;48.234;14.320;2023-07-20T00:34:26;18.10;99.90
11320;DHT22;5715;48.234;14.320;2023-07-20T00:37:14;18.10;99.90
11320;DHT22;5715;48.234;14.320;2023-07-20T00:40:01;18.10;99.90
11320;DHT22;5715;48.234;14.320;2023-07-20T00:42:51;18.10;99.90
11320;DHT22;5715;48.234;14.320;2023-07-20T00:45:39;18.10;99.90
11320;DHT22;5715;48.234;14.320;2023-07-20T00:48:27;18.10;99.90
11320;DHT22;5715;48.234;14.320;2023-07-20T00:51:16;18.10;99.90
11320;DHT22;5715;48.234;14.320;2023-07-20T00:54:03;18.30;99.90
11320;DHT22;5715;48.234;14.320;2023-07-20T00:56:53;18.40;99.90
11320;DHT22;5715;48.234;14.320;2023-07-20T00:59:42;18.40;99.90
11320;DHT22;5715;48.234;14.320;2023-07-20T01:02:31;18.40;99.90
11320;DHT22;5715;48.234;14.320;2023-07-20T01:05:18;18.40;99.90
11320;DHT22;5715;48.234;14.320;2023-07-20T01:11:38;18.50;99.90
11320;DHT22;5715;48.234;14.320;2023-07-20T01:14:31;18.60;99.90
11320;DHT22;5715;48.234;14.320;2023-07-20T01:17:20;18.60;99.90
11320;DHT22;5715;48.234;14.320;2023-07-20T01:20:10;18.60;99.90
11320;DHT22;5715;48.234;14.320;2023-07-20T01:23:22;18.50;99.90
11320;DHT22;5715;48.234;14.320;2023-07-20T01:33:28;18.20;99.90
11320;DHT22;5715;48.234;14.320;2023-07-20T01:36:22;18.10;99.90
11320;DHT22;5715;48.234;14.320;2023-07-20T01:39:12;18.00;99.90
11320;DHT22;5715;48.234;14.320;2023-07-20T01:42:00;18.00;99.90
11320;DHT22;5715;48.234;14.320;2023-07-20T01:44:50;18.00;99.90
11320;DHT22;5715;48.234;14.320;2023-07-20T01:47:38;18.00;99.90
11320;DHT22;5715;48.234;14.320;2023-07-20T01:50:26;18.10;99.90
11320;DHT22;5715;48.234;14.320;2023-07-20T01:53:13;18.10;99.90
11320;DHT22;5715;48.234;14.320;2023-07-20T01:56:01;18.10;99.90
11320;DHT22;5715;48.234;14.320;2023-07-20T01:58:49;18.10;99.90
11320;DHT22;5715;48.234;14.320;2023-07-20T02:01:36;18.20;99.90
11320;DHT22;5715;48.234;14.320;2023-07-20T02:04:24;18.30;99.90
11320;DHT22;5715;48.234;14.320;2023-07-20T02:07:12;18.50;99.90
11320;DHT22;5715;48.234;14.320;2023-07-20T02:09:59;18.50;99.90
11320;DHT22;5715;48.234;14.320;2023-07-20T02:12:47;18.60;99.90
11320;DHT22;5715;48.234;14.320;2023-07-20T02:15:34;18.60;99.90
11320;DHT22;5715;48.234;14.320;2023-07-20T02:18:22;18.60;99.90
11320;DHT22;5715;48.234;14.320;2023-07-20T02:21:10;18.70;99.90
11320;DHT22;5715;48.234;14.320;2023-07-20T02:23:57;18.80;99.90
11320;DHT22;5715;48.234;14.320;2023-07-20T02:26:45;18.70;99.90
11320;DHT22;5715;48.234;14.320;2023-07-20T02:29:32;18.70;99.90
11320;DHT22;5715;48.234;14.320;2023-07-20T02:32:21;18.70;99.90
11320;DHT22;5715;48.234;14.320;2023-07-20T02:35:08;18.70;99.90
11320;DHT22;5715;48.234;14.320;2023-07-20T02:37:56;18.50;99.90
11320;DHT22;5715;48.234;14.320;2023-07-20T02:40:43;18.50;99.90
11320;DHT22;5715;48.234;14.320;2023-07-20T02:43:31;18.50;99.90
11320;DHT22;5715;48.234;14.320;2023-07-20T02:46:18;18.40;99.90
11320;DHT22;5715;48.234;14.320;2023-07-20T02:49:06;18.40;99.90
11320;DHT22;5715;48.234;14.320;2023-07-20T02:51:54;18.40;99.90
11320;DHT22;5715;48.234;14.320;2023-07-20T02:54:41;18.50;99.90
11320;DHT22;5715;48.234;14.320;2023-07-20T02:57:29;18.50;99.90
11320;DHT22;5715;48.234;14.320;2023-07-20T03:00:17;18.50;99.90
11320;DHT22;5715;48.234;14.320;2023-07-20T03:03:06;18.50;99.90
11320;DHT22;5715;48.234;14.320;2023-07-20T03:05:57;18.50;99.90
11320;DHT22;5715;48.234;14.320;2023-07-20T03:08:46;18.50;99.90
11320;DHT22;5715;48.234;14.320;2023-07-20T03:11:39;18.60;99.90
11320;DHT22;5715;48.234;14.320;2023-07-20T03:14:26;18.60;99.90
11320;DHT22;5715;48.234;14.320;2023-07-20T03:17:14;18.50;99.90
11320;DHT22;5715;48.234;14.320;2023-07-20T03:20:01;18.50;99.90
11320;DHT22;5715;48.234;14.320;2023-07-20T03:22:50;18.60;99.90
11320;DHT22;5715;48.234;14.320;2023-07-20T03:25:37;18.50;99.90
11320;DHT22;5715;48.234;14.320;2023-07-20T03:28:25;18.50;99.90
11320;DHT22;5715;48.234;14.320;2023-07-20T03:31:13;18.50;99.90
11320;DHT22;5715;48.234;14.320;2023-07-20T03:34:02;18.50;99.90
11320;DHT22;5715;48.234;14.320;2023-07-20T03:36:49;18.40;99.90
11320;DHT22;5715;48.234;14.320;2023-07-20T03:39:37;18.40;99.90
11320;DHT22;5715;48.234;14.320;2023-07-20T03:42:24;18.30;99.90
11320;DHT22;5715;48.234;14.320;2023-07-20T03:45:12;18.30;99.90
11320;DHT22;5715;48.234;14.320;2023-07-20T03:47:59;18.20;99.90
11320;DHT22;5715;48.234;14.320;2023-07-20T03:50:49;18.20;99.90
11320;DHT22;5715;48.234;14.320;2023-07-20T03:53:38;18.20;99.90
11320;DHT22;5715;48.234;14.320;2023-07-20T03:56:26;18.20;99.90
11320;DHT22;5715;48.234;14.320;2023-07-20T03:59:13;18.20;99.90
11320;DHT22;5715;48.234;14.320;2023-07-20T04:02:01;18.30;99.90
11320;DHT22;5715;48.234;14.320;2023-07-20T04:04:48;18.30;99.90
11320;DHT22;5715;48.234;14.320;2023-07-20T04:07:36;18.40;99.90
11320;DHT22;5715;48.234;14.320;2023-07-20T04:10:24;18.40;99.90
11320;DHT22;5715;48.234;14.320;2023-07-20T04:13:12;18.50;99.90
11320;DHT22;5715;48.234;14.320;2023-07-20T04:16:00;18.50;99.90
11320;DHT22;5715;48.234;14.320;2023-07-20T04:18:47;18.60;99.90
11320;DHT22;5715;48.234;14.320;2023-07-20T04:21:40;18.70;99.90
11320;DHT22;5715;48.234;14.320;2023-07-20T04:24:28;18.70;99.90
11320;DHT22;5715;48.234;14.320;2023-07-20T04:27:16;18.80;99.90
11320;DHT22;5715;48.234;14.320;2023-07-20T04:30:06;19.00;99.90
11320;DHT22;5715;48.234;14.320;2023-07-20T04:32:54;19.20;99.90
11320;DHT22;5715;48.234;14.320;2023-07-20T04:35:50;19.30;99.90
11320;DHT22;5715;48.234;14.320;2023-07-20T04:38:40;19.40;99.90
11320;DHT22;5715;48.234;14.320;2023-07-20T04:41:28;19.40;99.90
11320;DHT22;5715;48.234;14.320;2023-07-20T04:44:15;19.40;99.90
11320;DHT22;5715;48.234;14.320;2023-07-20T04:47:03;19.40;99.90
11320;DHT22;5715;48.234;14.320;2023-07-20T04:49:51;19.40;99.90
11320;DHT22;5715;48.234;14.320;2023-07-20T04:52:38;19.50;99.90
11320;DHT22;5715;48.234;14.320;2023-07-20T04:55:29;19.80;99.90
11320;DHT22;5715;48.234;14.320;2023-07-20T04:58:17;20.00;99.90
11320;DHT22;5715;48.234;14.320;2023-07-20T05:01:05;20.20;99.90
11320;DHT22;5715;48.234;14.320;2023-07-20T05:03:55;20.20;99.90
11320;DHT22;5715;48.234;14.320;2023-07-20T05:06:42;20.20;99.90
11320;DHT22;5715;48.234;14.320;2023-07-20T05:09:30;20.20;99.90
11320;DHT22;5715;48.234;14.320;2023-07-20T05:12:18;20.00;99.90
11320;DHT22;5715;48.234;14.320;2023-07-20T05:15:07;20.00;99.90
11320;DHT22;5715;48.234;14.320;2023-07-20T05:17:55;19.90;99.90
11320;DHT22;5715;48.234;14.320;2023-07-20T05:20:45;19.80;99.90
11320;DHT22;5715;48.234;14.320;2023-07-20T05:23:33;19.80;99.90
11320;DHT22;5715;48.234;14.320;2023-07-20T05:26:21;19.80;99.90
11320;DHT22;5715;48.234;14.320;2023-07-20T05:29:09;19.80;99.90
11320;DHT22;5715;48.234;14.320;2023-07-20T05:31:56;19.80;99.90
11320;DHT22;5715;48.234;14.320;2023-07-20T05:34:44;19.70;99.90
11320;DHT22;5715;48.234;14.320;2023-07-20T05:37:32;19.80;99.90
11320;DHT22;5715;48.234;14.320;2023-07-20T05:40:20;19.90;99.90
11320;DHT22;5715;48.234;14.320;2023-07-20T05:43:08;20.20;99.90
11320;DHT22;5715;48.234;14.320;2023-07-20T05:45:55;20.40;99.90
11320;DHT22;5715;48.234;14.320;2023-07-20T05:48:43;20.40;99.90
11320;DHT22;5715;48.234;14.320;2023-07-20T05:51:31;20.30;99.90
11320;DHT22;5715;48.234;14.320;2023-07-20T05:54:23;20.40;99.90
11320;DHT22;5715;48.234;14.320;2023-07-20T05:57:12;20.90;99.90
11320;DHT22;5715;48.234;14.320;2023-07-20T06:00:00;21.40;99.90
11320;DHT22;5715;48.234;14.320;2023-07-20T06:02:48;21.40;99.90
11320;DHT22;5715;48.234;14.320;2023-07-20T06:05:36;21.60;99.90
11320;DHT22;5715;48.234;14.320;2023-07-20T06:08:23;21.50;99.90
11320;DHT22;5715;48.234;14.320;2023-07-20T06:11:11;21.50;99.90
11320;DHT22;5715;48.234;14.320;2023-07-20T06:13:59;21.30;99.90
11320;DHT22;5715;48.234;14.320;2023-07-20T06:16:47;21.20;99.90
11320;DHT22;5715;48.234;14.320;2023-07-20T06:19:35;21.40;99.90
11320;DHT22;5715;48.234;14.320;2023-07-20T06:22:22;21.70;99.90
11320;DHT22;5715;48.234;14.320;2023-07-20T06:25:10;21.90;99.90
11320;DHT22;5715;48.234;14.320;2023-07-20T06:27:57;21.90;99.90
11320;DHT22;5715;48.234;14.320;2023-07-20T06:30:45;21.60;99.90
11320;DHT22;5715;48.234;14.320;2023-07-20T06:33:33;21.40;99.90
11320;DHT22;5715;48.234;14.320;2023-07-20T06:36:22;21.20;99.90
11320;DHT22;5715;48.234;14.320;2023-07-20T06:39:10;20.90;99.90
11320;DHT22;5715;48.234;14.320;2023-07-20T06:42:00;20.80;99.90
11320;DHT22;5715;48.234;14.320;2023-07-20T06:44:48;20.60;99.90
11320;DHT22;5715;48.234;14.320;2023-07-20T06:47:38;20.60;99.90
11320;DHT22;5715;48.234;14.320;2023-07-20T06:50:30;20.60;99.90
11320;DHT22;5715;48.234;14.320;2023-07-20T06:53:18;20.70;99.90
11320;DHT22;5715;48.234;14.320;2023-07-20T06:56:06;20.90;99.90
11320;DHT22;5715;48.234;14.320;2023-07-20T06:58:53;21.20;99.90
11320;DHT22;5715;48.234;14.320;2023-07-20T07:01:41;21.60;99.90
11320;DHT22;5715;48.234;14.320;2023-07-20T07:04:29;21.70;99.90
11320;DHT22;5715;48.234;14.320;2023-07-20T07:07:16;21.90;99.90
11320;DHT22;5715;48.234;14.320;2023-07-20T07:10:13;22.00;99.90
11320;DHT22;5715;48.234;14.320;2023-07-20T07:13:01;21.80;99.90
11320;DHT22;5715;48.234;14.320;2023-07-20T07:15:49;21.80;99.90
11320;DHT22;5715;48.234;14.320;2023-07-20T07:18:36;21.70;99.90
11320;DHT22;5715;48.234;14.320;2023-07-20T07:21:24;21.70;99.90
11320;DHT22;5715;48.234;14.320;2023-07-20T07:24:12;21.60;99.90
11320;DHT22;5715;48.234;14.320;2023-07-20T07:27:05;21.50;99.90
11320;DHT22;5715;48.234;14.320;2023-07-20T07:29:53;21.40;99.90
11320;DHT22;5715;48.234;14.320;2023-07-20T07:32:42;21.50;99.90
11320;DHT22;5715;48.234;14.320;2023-07-20T07:35:29;21.70;99.90
11320;DHT22;5715;48.234;14.320;2023-07-20T07:38:17;21.90;99.90
11320;DHT22;5715;48.234;14.320;2023-07-20T07:41:10;21.90;99.90
11320;DHT22;5715;48.234;14.320;2023-07-20T07:43:58;21.70;99.90
11320;DHT22;5715;48.234;14.320;2023-07-20T07:46:45;21.70;99.90
11320;DHT22;5715;48.234;14.320;2023-07-20T07:49:33;21.60;99.90
11320;DHT22;5715;48.234;14.320;2023-07-20T07:52:20;21.50;99.90
11320;DHT22;5715;48.234;14.320;2023-07-20T07:55:08;21.50;99.90
11320;DHT22;5715;48.234;14.320;2023-07-20T07:57:56;21.70;99.90
11320;DHT22;5715;48.234;14.320;2023-07-20T08:00:43;22.10;99.90
11320;DHT22;5715;48.234;14.320;2023-07-20T08:03:31;22.20;99.90
11320;DHT22;5715;48.234;14.320;2023-07-20T08:06:19;22.30;99.90
11320;DHT22;5715;48.234;14.320;2023-07-20T08:09:07;22.30;99.90
11320;DHT22;5715;48.234;14.320;2023-07-20T08:11:54;22.40;99.90
11320;DHT22;5715;48.234;14.320;2023-07-20T08:14:42;22.60;99.90
11320;DHT22;5715;48.234;14.320;2023-07-20T08:17:29;22.60;99.90
11320;DHT22;5715;48.234;14.320;2023-07-20T08:20:18;22.90;99.90
11320;DHT22;5715;48.234;14.320;2023-07-20T08:23:05;23.10;99.90
11320;DHT22;5715;48.234;14.320;2023-07-20T08:25:53;23.10;99.90
11320;DHT22;5715;48.234;14.320;2023-07-20T08:28:44;22.90;99.90
11320;DHT22;5715;48.234;14.320;2023-07-20T08:31:31;22.90;99.90
11320;DHT22;5715;48.234;14.320;2023-07-20T08:34:19;22.80;99.90
11320;DHT22;5715;48.234;14.320;2023-07-20T08:37:18;22.90;99.90
11320;DHT22;5715;48.234;14.320;2023-07-20T08:40:06;22.80;99.90
11320;DHT22;5715;48.234;14.320;2023-07-20T08:42:58;22.80;99.90
11320;DHT22;5715;48.234;14.320;2023-07-20T08:45:49;22.90;99.90
11320;DHT22;5715;48.234;14.320;2023-07-20T08:48:40;22.70;99.90
11320;DHT22;5715;48.234;14.320;2023-07-20T08:51:30;22.80;99.90
11320;DHT22;5715;48.234;14.320;2023-07-20T08:54:19;22.90;99.90
11320;DHT22;5715;48.234;14.320;2023-07-20T08:57:06;23.10;99.90
11320;DHT22;5715;48.234;14.320;2023-07-20T08:59:55;23.20;99.90
11320;DHT22;5715;48.234;14.320;2023-07-20T09:02:45;23.60;99.90
11320;DHT22;5715;48.234;14.320;2023-07-20T09:05:35;23.70;99.90
11320;DHT22;5715;48.234;14.320;2023-07-20T09:08:23;23.70;99.90
11320;DHT22;5715;48.234;14.320;2023-07-20T09:11:12;23.80;99.90
11320;DHT22;5715;48.234;14.320;2023-07-20T09:14:07;23.60;99.90
11320;DHT22;5715;48.234;14.320;2023-07-20T09:16:56;23.20;99.90
11320;DHT22;5715;48.234;14.320;2023-07-20T09:19:47;22.90;99.90
11320;DHT22;5715;48.234;14.320;2023-07-20T09:22:35;22.90;99.90
11320;DHT22;5715;48.234;14.320;2023-07-20T09:25:27;23.00;99.90
11320;DHT22;5715;48.234;14.320;2023-07-20T09:28:17;23.30;99.90
11320;DHT22;5715;48.234;14.320;2023-07-20T09:31:19;23.50;99.90
11320;DHT22;5715;48.234;14.320;2023-07-20T09:34:07;23.70;99.90
11320;DHT22;5715;48.234;14.320;2023-07-20T09:36:55;23.60;99.90
11320;DHT22;5715;48.234;14.320;2023-07-20T09:39:46;23.90;99.90
11320;DHT22;5715;48.234;14.320;2023-07-20T09:42:37;24.10;99.90
11320;DHT22;5715;48.234;14.320;2023-07-20T09:45:34;24.30;99.90
11320;DHT22;5715;48.234;14.320;2023-07-20T09:48:52;24.40;99.90
11320;DHT22;5715;48.234;14.320;2023-07-20T09:51:46;24.90;99.90
11320;DHT22;5715;48.234;14.320;2023-07-20T09:54:36;24.80;99.90
11320;DHT22;5715;48.234;14.320;2023-07-20T09:57:26;24.80;99.90
11320;DHT22;5715;48.234;14.320;2023-07-20T10:00:16;24.70;99.90
11320;DHT22;5715;48.234;14.320;2023-07-20T10:03:08;24.60;99.90
11320;DHT22;5715;48.234;14.320;2023-07-20T10:06:05;24.70;99.90
11320;DHT22;5715;48.234;14.320;2023-07-20T10:09:00;24.60;99.90
11320;DHT22;5715;48.234;14.320;2023-07-20T10:11:50;24.50;99.90
11320;DHT22;5715;48.234;14.320;2023-07-20T10:15:12;24.40;99.90
11320;DHT22;5715;48.234;14.320;2023-07-20T10:21:46;24.40;99.90
11320;DHT22;5715;48.234;14.320;2023-07-20T10:24:45;23.90;99.90
11320;DHT22;5715;48.234;14.320;2023-07-20T10:27:35;23.90;99.90
11320;DHT22;5715;48.234;14.320;2023-07-20T10:30:23;23.80;99.90
11320;DHT22;5715;48.234;14.320;2023-07-20T10:33:13;23.90;99.90
11320;DHT22;5715;48.234;14.320;2023-07-20T10:36:03;24.00;99.90
11320;DHT22;5715;48.234;14.320;2023-07-20T10:38:55;24.00;99.90
11320;DHT22;5715;48.234;14.320;2023-07-20T10:41:44;24.00;99.90
11320;DHT22;5715;48.234;14.320;2023-07-20T10:44:31;24.00;99.90
11320;DHT22;5715;48.234;14.320;2023-07-20T10:47:19;24.20;99.90
11320;DHT22;5715;48.234;14.320;2023-07-20T10:50:07;24.30;99.90
11320;DHT22;5715;48.234;14.320;2023-07-20T10:53:24;24.20;99.90
11320;DHT22;5715;48.234;14.320;2023-07-20T10:56:13;24.20;99.90
11320;DHT22;5715;48.234;14.320;2023-07-20T10:59:18;24.40;99.90
11320;DHT22;5715;48.234;14.320;2023-07-20T11:02:08;24.70;99.90
11320;DHT22;5715;48.234;14.320;2023-07-20T11:04:56;24.60;99.90
11320;DHT22;5715;48.234;14.320;2023-07-20T11:07:45;24.40;99.90
11320;DHT22;5715;48.234;14.320;2023-07-20T11:10:34;24.50;99.90
11320;DHT22;5715;48.234;14.320;2023-07-20T11:13:23;24.70;99.90
11320;DHT22;5715;48.234;14.320;2023-07-20T11:16:12;24.50;99.90
11320;DHT22;5715;48.234;14.320;2023-07-20T11:19:00;24.60;99.90
11320;DHT22;5715;48.234;14.320;2023-07-20T11:21:51;24.70;99.90
11320;DHT22;5715;48.234;14.320;2023-07-20T11:24:50;24.90;99.90
11320;DHT22;5715;48.234;14.320;2023-07-20T11:27:46;25.20;99.90
11320;DHT22;5715;48.234;14.320;2023-07-20T11:30:34;25.00;99.90
11320;DHT22;5715;48.234;14.320;2023-07-20T11:33:22;25.00;99.90
11320;DHT22;5715;48.234;14.320;2023-07-20T11:36:10;25.10;99.90
11320;DHT22;5715;48.234;14.320;2023-07-20T11:39:01;25.40;99.90
11320;DHT22;5715;48.234;14.320;2023-07-20T11:41:53;25.70;99.90
11320;DHT22;5715;48.234;14.320;2023-07-20T11:44:44;25.60;99.90
11320;DHT22;5715;48.234;14.320;2023-07-20T11:47:32;25.40;99.90
11320;DHT22;5715;48.234;14.320;2023-07-20T11:50:20;25.60;99.90
11320;DHT22;5715;48.234;14.320;2023-07-20T11:53:08;25.80;99.90
11320;DHT22;5715;48.234;14.320;2023-07-20T11:55:57;25.60;99.90
11320;DHT22;5715;48.234;14.320;2023-07-20T11:58:45;25.50;99.90
11320;DHT22;5715;48.234;14.320;2023-07-20T12:01:33;25.30;99.90
11320;DHT22;5715;48.234;14.320;2023-07-20T12:04:23;25.10;99.90
11320;DHT22;5715;48.234;14.320;2023-07-20T12:07:11;24.80;99.90
11320;DHT22;5715;48.234;14.320;2023-07-20T12:12:53;24.50;99.90
11320;DHT22;5715;48.234;14.320;2023-07-20T12:15:40;24.40;99.90
11320;DHT22;5715;48.234;14.320;2023-07-20T12:18:35;24.40;99.90
11320;DHT22;5715;48.234;14.320;2023-07-20T12:21:23;24.70;99.90
11320;DHT22;5715;48.234;14.320;2023-07-20T12:24:11;25.20;99.90
11320;DHT22;5715;48.234;14.320;2023-07-20T12:26:59;25.60;99.90
11320;DHT22;5715;48.234;14.320;2023-07-20T12:29:46;25.80;99.90
11320;DHT22;5715;48.234;14.320;2023-07-20T12:32:33;26.00;99.90
11320;DHT22;5715;48.234;14.320;2023-07-20T12:35:21;26.10;99.90
11320;DHT22;5715;48.234;14.320;2023-07-20T12:38:09;26.10;99.90
11320;DHT22;5715;48.234;14.320;2023-07-20T12:40:57;26.00;99.90
11320;DHT22;5715;48.234;14.320;2023-07-20T12:43:45;25.80;99.90
11320;DHT22;5715;48.234;14.320;2023-07-20T12:46:33;25.50;99.90
11320;DHT22;5715;48.234;14.320;2023-07-20T12:49:24;25.50;99.90
11320;DHT22;5715;48.234;14.320;2023-07-20T12:52:11;25.60;99.80
11320;DHT22;5715;48.234;14.320;2023-07-20T12:54:59;25.40;99.90
11320;DHT22;5715;48.234;14.320;2023-07-20T12:57:48;25.40;99.90
11320;DHT22;5715;48.234;14.320;2023-07-20T13:00:35;25.50;99.90
11320;DHT22;5715;48.234;14.320;2023-07-20T13:03:23;25.40;99.90
11320;DHT22;5715;48.234;14.320;2023-07-20T13:06:13;25.30;99.90
11320;DHT22;5715;48.234;14.320;2023-07-20T13:09:04;25.70;99.90
11320;DHT22;5715;48.234;14.320;2023-07-20T13:11:52;26.30;99.90
11320;DHT22;5715;48.234;14.320;2023-07-20T13:14:40;26.50;99.90
11320;DHT22;5715;48.234;14.320;2023-07-20T13:17:28;26.20;99.90
11320;DHT22;5715;48.234;14.320;2023-07-20T13:20:16;25.90;99.90
11320;DHT22;5715;48.234;14.320;2023-07-20T13:23:04;25.80;99.90
11320;DHT22;5715;48.234;14.320;2023-07-20T13:25:52;26.10;99.90
11320;DHT22;5715;48.234;14.320;2023-07-20T13:28:41;26.30;99.90
11320;DHT22;5715;48.234;14.320;2023-07-20T13:31:29;26.10;99.90
11320;DHT22;5715;48.234;14.320;2023-07-20T13:34:21;26.00;99.90
11320;DHT22;5715;48.234;14.320;2023-07-20T13:37:08;26.10;99.90
11320;DHT22;5715;48.234;14.320;2023-07-20T13:39:59;26.00;99.90
11320;DHT22;5715;48.234;14.320;2023-07-20T13:42:47;26.50;99.90
11320;DHT22;5715;48.234;14.320;2023-07-20T13:45:34;26.50;99.70
11320;DHT22;5715;48.234;14.320;2023-07-20T13:48:22;26.60;99.80
11320;DHT22;5715;48.234;14.320;2023-07-20T13:51:14;26.50;99.90
11320;DHT22;5715;48.234;14.320;2023-07-20T13:54:13;26.20;99.20
11320;DHT22;5715;48.234;14.320;2023-07-20T13:57:03;26.00;99.30
11320;DHT22;5715;48.234;14.320;2023-07-20T13:59:52;26.20;99.90
11320;DHT22;5715;48.234;14.320;2023-07-20T14:02:39;26.10;99.20
11320;DHT22;5715;48.234;14.320;2023-07-20T14:05:30;26.00;99.90
11320;DHT22;5715;48.234;14.320;2023-07-20T14:08:21;26.10;99.90
11320;DHT22;5715;48.234;14.320;2023-07-20T14:11:08;26.30;99.90
11320;DHT22;5715;48.234;14.320;2023-07-20T14:13:59;26.40;99.60
11320;DHT22;5715;48.234;14.320;2023-07-20T14:16:46;26.30;99.90
11320;DHT22;5715;48.234;14.320;2023-07-20T14:19:34;25.90;99.40
11320;DHT22;5715;48.234;14.320;2023-07-20T14:22:23;26.10;99.90
11320;DHT22;5715;48.234;14.320;2023-07-20T14:25:13;26.20;99.90
11320;DHT22;5715;48.234;14.320;2023-07-20T14:28:02;25.80;99.90
11320;DHT22;5715;48.234;14.320;2023-07-20T14:30:50;25.80;99.90
11320;DHT22;5715;48.234;14.320;2023-07-20T14:33:37;25.80;99.90
11320;DHT22;5715;48.234;14.320;2023-07-20T14:36:26;25.60;99.90
11320;DHT22;5715;48.234;14.320;2023-07-20T14:39:14;25.60;99.90
11320;DHT22;5715;48.234;14.320;2023-07-20T14:42:01;25.90;99.90
11320;DHT22;5715;48.234;14.320;2023-07-20T14:44:51;26.40;99.90
11320;DHT22;5715;48.234;14.320;2023-07-20T14:47:39;26.50;99.90
11320;DHT22;5715;48.234;14.320;2023-07-20T14:50:27;26.40;99.90
11320;DHT22;5715;48.234;14.320;2023-07-20T14:53:14;26.40;99.90
11320;DHT22;5715;48.234;14.320;2023-07-20T14:56:05;26.40;99.30
11320;DHT22;5715;48.234;14.320;2023-07-20T14:58:52;26.60;99.90
11320;DHT22;5715;48.234;14.320;2023-07-20T15:01:40;26.60;98.80
11320;DHT22;5715;48.234;14.320;2023-07-20T15:04:28;26.60;99.50
11320;DHT22;5715;48.234;14.320;2023-07-20T15:07:16;26.50;98.40
11320;DHT22;5715;48.234;14.320;2023-07-20T15:10:06;26.60;98.40
11320;DHT22;5715;48.234;14.320;2023-07-20T15:12:54;26.70;98.70
11320;DHT22;5715;48.234;14.320;2023-07-20T15:15:41;26.60;99.90
11320;DHT22;5715;48.234;14.320;2023-07-20T15:18:30;26.40;98.90
11320;DHT22;5715;48.234;14.320;2023-07-20T15:21:33;26.60;99.40
11320;DHT22;5715;48.234;14.320;2023-07-20T15:24:21;26.70;99.90
11320;DHT22;5715;48.234;14.320;2023-07-20T15:27:09;26.70;98.70
11320;DHT22;5715;48.234;14.320;2023-07-20T15:29:57;26.40;99.90
11320;DHT22;5715;48.234;14.320;2023-07-20T15:32:44;26.30;98.40
11320;DHT22;5715;48.234;14.320;2023-07-20T15:35:35;25.90;97.70
11320;DHT22;5715;48.234;14.320;2023-07-20T15:38:23;25.90;99.90
11320;DHT22;5715;48.234;14.320;2023-07-20T15:41:11;26.10;99.50
11320;DHT22;5715;48.234;14.320;2023-07-20T15:43:59;26.60;99.90
11320;DHT22;5715;48.234;14.320;2023-07-20T15:46:49;26.70;99.50
11320;DHT22;5715;48.234;14.320;2023-07-20T15:49:37;26.40;99.00
11320;DHT22;5715;48.234;14.320;2023-07-20T15:52:24;26.50;99.90
11320;DHT22;5715;48.234;14.320;2023-07-20T15:55:12;26.30;98.30
11320;DHT22;5715;48.234;14.320;2023-07-20T15:58:00;26.40;99.90
11320;DHT22;5715;48.234;14.320;2023-07-20T16:00:53;26.60;97.70
11320;DHT22;5715;48.234;14.320;2023-07-20T16:03:44;26.50;98.60
11320;DHT22;5715;48.234;14.320;2023-07-20T16:06:33;26.40;98.80
11320;DHT22;5715;48.234;14.320;2023-07-20T16:09:22;26.60;99.90
11320;DHT22;5715;48.234;14.320;2023-07-20T16:12:10;26.70;97.40
11320;DHT22;5715;48.234;14.320;2023-07-20T16:14:58;26.90;97.90
11320;DHT22;5715;48.234;14.320;2023-07-20T16:17:48;26.80;99.90
11320;DHT22;5715;48.234;14.320;2023-07-20T16:20:37;26.80;98.70
11320;DHT22;5715;48.234;14.320;2023-07-20T16:23:25;26.60;97.00
11320;DHT22;5715;48.234;14.320;2023-07-20T16:26:15;26.70;97.10
11320;DHT22;5715;48.234;14.320;2023-07-20T16:29:03;26.70;98.10
11320;DHT22;5715;48.234;14.320;2023-07-20T16:31:53;26.80;98.80
11320;DHT22;5715;48.234;14.320;2023-07-20T16:34:44;26.60;97.30
11320;DHT22;5715;48.234;14.320;2023-07-20T16:37:35;26.60;97.70
11320;DHT22;5715;48.234;14.320;2023-07-20T16:40:23;26.40;96.80
11320;DHT22;5715;48.234;14.320;2023-07-20T16:43:14;26.50;97.80
11320;DHT22;5715;48.234;14.320;2023-07-20T16:46:04;26.60;98.70
11320;DHT22;5715;48.234;14.320;2023-07-20T16:48:55;26.50;98.00
11320;DHT22;5715;48.234;14.320;2023-07-20T16:51:43;26.60;97.40
11320;DHT22;5715;48.234;14.320;2023-07-20T16:54:30;26.40;96.90
11320;DHT22;5715;48.234;14.320;2023-07-20T16:57:18;26.30;97.70
11320;DHT22;5715;48.234;14.320;2023-07-20T17:00:06;26.30;99.00
11320;DHT22;5715;48.234;14.320;2023-07-20T17:02:57;26.50;97.50
11320;DHT22;5715;48.234;14.320;2023-07-20T17:05:45;27.10;98.20
11320;DHT22;5715;48.234;14.320;2023-07-20T17:08:33;27.30;96.40
11320;DHT22;5715;48.234;14.320;2023-07-20T17:11:21;27.60;96.00
11320;DHT22;5715;48.234;14.320;2023-07-20T17:14:09;27.90;96.50
11320;DHT22;5715;48.234;14.320;2023-07-20T17:17:00;28.00;96.90
11320;DHT22;5715;48.234;14.320;2023-07-20T17:19:48;27.70;96.00
11320;DHT22;5715;48.234;14.320;2023-07-20T17:22:56;26.80;96.00
11320;DHT22;5715;48.234;14.320;2023-07-20T17:25:47;26.30;96.50
11320;DHT22;5715;48.234;14.320;2023-07-20T17:28:38;26.40;97.80
11320;DHT22;5715;48.234;14.320;2023-07-20T17:31:28;26.60;97.00
11320;DHT22;5715;48.234;14.320;2023-07-20T17:34:16;26.90;96.50
11320;DHT22;5715;48.234;14.320;2023-07-20T17:37:04;27.30;96.80
11320;DHT22;5715;48.234;14.320;2023-07-20T17:39:54;27.70;97.30
11320;DHT22;5715;48.234;14.320;2023-07-20T17:42:45;27.50;96.20
11320;DHT22;5715;48.234;14.320;2023-07-20T17:45:38;27.10;97.20
11320;DHT22;5715;48.234;14.320;2023-07-20T17:48:26;26.60;97.70
11320;DHT22;5715;48.234;14.320;2023-07-20T17:51:14;26.10;97.70
11320;DHT22;5715;48.234;14.320;2023-07-20T17:54:03;25.70;97.60
11320;DHT22;5715;48.234;14.320;2023-07-20T17:56:51;25.30;98.50
11320;DHT22;5715;48.234;14.320;2023-07-20T17:59:39;25.00;98.50
11320;DHT22;5715;48.234;14.320;2023-07-20T18:02:32;24.70;98.70
11320;DHT22;5715;48.234;14.320;2023-07-20T18:05:19;24.50;98.60